00:37
Airports
History
Links
Donate
Help keep this website running!
PayPal
Bitcoin
Information on this page is community maintained and may be outdated or inaccurate and is intended for reference only or PC simulator navigating.
Always use approved charts for navigating.
ENTC
Tromso Langnes
Tromso Langnes (ENTC)
Tromsø, Troms, Norway (9017)
(C)
Lat/Lng:69° 40' 58.32" N / 18° 55' 9.71" E
69.682866 / 18.919363
Elevation:31'ft 9mMSL
ID / ICAO:ENTC
Runways:1
Longest:(01-19) 2,349.6m 7,709ft Asphalt
Controlled:Yes
Distance To
Airport ID:
Airport Radio Frequencies
ATIS: 126.12
Tower: 118.3
Approach: 123.75
Nearby VORs <50NM
Nearby NDBs
METARUpdated 07-24-17 23:50 GMT
Altimeter: 30.09
Visibility: 6.2 statute miles
Wind: 0 knots (000°)
Temp: 11°c 52°f
Humidity: 81.7%

METAR: ENTC 242350Z 00000KT CAVOK 11/08 Q1019 RMK WIND 2600FT 13004KT

(Powered by phpweather)
Runway 01 / 19
Dimensions:2349.6 x 43m 7709' x 141'ft
Surface:Asphalt
Edge Lights:High intensity
Runway 01 [A]Runway 19 [B]
Heading:012°TH 192°TH
Lat:
Lng:
69° 40' 21"N
18° 54' 46.47"E
69° 41' 35.63"N
18° 55' 32.94"E
ALS:ALSF-IALSF-I
TDZ:Yes, lighted
User Notes and Comments
Google Map
Nearby Airports
(C) Bardufoss 44.3 NM
ENDU (WX) SSW 192°
(C) Sorkjosen 49.3 NM
ENSR (WX) E 81°
(C) ANDOYA 72.5 NM
ENAN WSW 248°
(U) HASVIK 94.0 NM
ENHK NE 53°
(U) Narvik Framnes 94.0 NM
ENNK (WX) SSW 203°
(C) EVENES 99.1 NM
ENEV SSW 213°
(C) ALTA 107.8 NM
ENAT (WX) E 79°
VFR Chart
Flight Planning at SkyVector.com